sensor_id;sensor_type;location;lat;lon;timestamp;temperature;humidity
82506;SHT30;72144;51.444;10.560;2024-01-10T00:00:08;-7.46;80.45
82506;SHT30;72144;51.444;10.560;2024-01-10T00:02:34;-7.47;80.31
82506;SHT30;72144;51.444;10.560;2024-01-10T00:04:59;-7.50;80.25
82506;SHT30;72144;51.444;10.560;2024-01-10T00:07:25;-7.50;80.24
82506;SHT30;72144;51.444;10.560;2024-01-10T00:09:50;-7.53;80.14
82506;SHT30;72144;51.444;10.560;2024-01-10T00:12:15;-7.54;80.15
82506;SHT30;72144;51.444;10.560;2024-01-10T00:14:41;-7.54;80.34
82506;SHT30;72144;51.444;10.560;2024-01-10T00:17:06;-7.56;80.41
82506;SHT30;72144;51.444;10.560;2024-01-10T00:19:32;-7.54;80.59
82506;SHT30;72144;51.444;10.560;2024-01-10T00:21:58;-7.57;80.26
82506;SHT30;72144;51.444;10.560;2024-01-10T00:24:23;-7.59;80.47
82506;SHT30;72144;51.444;10.560;2024-01-10T00:26:48;-7.59;80.45
82506;SHT30;72144;51.444;10.560;2024-01-10T00:29:14;-7.60;80.29
82506;SHT30;72144;51.444;10.560;2024-01-10T00:31:39;-7.60;80.25
82506;SHT30;72144;51.444;10.560;2024-01-10T00:34:05;-7.63;80.14
82506;SHT30;72144;51.444;10.560;2024-01-10T00:36:30;-7.64;80.37
82506;SHT30;72144;51.444;10.560;2024-01-10T00:38:56;-7.64;80.23
82506;SHT30;72144;51.444;10.560;2024-01-10T00:41:21;-7.69;80.08
82506;SHT30;72144;51.444;10.560;2024-01-10T00:43:46;-7.69;80.04
82506;SHT30;72144;51.444;10.560;2024-01-10T00:46:12;-7.70;80.09
82506;SHT30;72144;51.444;10.560;2024-01-10T00:48:37;-7.73;80.11
82506;SHT30;72144;51.444;10.560;2024-01-10T00:51:03;-7.74;80.32
82506;SHT30;72144;51.444;10.560;2024-01-10T00:53:34;-7.73;80.13
82506;SHT30;72144;51.444;10.560;2024-01-10T00:55:59;-7.78;80.16
82506;SHT30;72144;51.444;10.560;2024-01-10T00:58:24;-7.77;80.38
82506;SHT30;72144;51.444;10.560;2024-01-10T01:00:50;-7.78;80.22
82506;SHT30;72144;51.444;10.560;2024-01-10T01:03:15;-7.80;80.15
82506;SHT30;72144;51.444;10.560;2024-01-10T01:05:40;-7.83;80.02
82506;SHT30;72144;51.444;10.560;2024-01-10T01:08:06;-7.84;80.10
82506;SHT30;72144;51.444;10.560;2024-01-10T01:10:33;-7.87;79.88
82506;SHT30;72144;51.444;10.560;2024-01-10T01:12:59;-7.88;79.87
82506;SHT30;72144;51.444;10.560;2024-01-10T01:15:24;-7.91;79.80
82506;SHT30;72144;51.444;10.560;2024-01-10T01:17:49;-7.91;79.86
82506;SHT30;72144;51.444;10.560;2024-01-10T01:20:15;-7.94;79.90
82506;SHT30;72144;51.444;10.560;2024-01-10T01:22:40;-7.94;79.96
82506;SHT30;72144;51.444;10.560;2024-01-10T01:25:06;-7.97;79.88
82506;SHT30;72144;51.444;10.560;2024-01-10T01:27:31;-7.99;79.91
82506;SHT30;72144;51.444;10.560;2024-01-10T01:29:57;-8.01;79.88
82506;SHT30;72144;51.444;10.560;2024-01-10T01:32:22;-8.02;79.89
82506;SHT30;72144;51.444;10.560;2024-01-10T01:34:47;-7.99;80.03
82506;SHT30;72144;51.444;10.560;2024-01-10T01:37:13;-8.01;80.14
82506;SHT30;72144;51.444;10.560;2024-01-10T01:39:38;-8.05;80.03
82506;SHT30;72144;51.444;10.560;2024-01-10T01:42:04;-8.05;79.87
82506;SHT30;72144;51.444;10.560;2024-01-10T01:44:29;-8.06;79.88
82506;SHT30;72144;51.444;10.560;2024-01-10T01:46:57;-8.05;79.81
82506;SHT30;72144;51.444;10.560;2024-01-10T01:49:23;-8.08;80.05
82506;SHT30;72144;51.444;10.560;2024-01-10T01:51:50;-8.11;79.85
82506;SHT30;72144;51.444;10.560;2024-01-10T01:54:16;-8.11;79.85
82506;SHT30;72144;51.444;10.560;2024-01-10T01:56:42;-8.11;80.03
82506;SHT30;72144;51.444;10.560;2024-01-10T01:59:09;-8.11;79.87
82506;SHT30;72144;51.444;10.560;2024-01-10T02:01:35;-8.12;79.90
82506;SHT30;72144;51.444;10.560;2024-01-10T02:04:01;-8.13;79.92
82506;SHT30;72144;51.444;10.560;2024-01-10T02:06:28;-8.15;80.05
82506;SHT30;72144;51.444;10.560;2024-01-10T02:08:54;-8.15;80.05
82506;SHT30;72144;51.444;10.560;2024-01-10T02:11:21;-8.15;79.99
82506;SHT30;72144;51.444;10.560;2024-01-10T02:13:47;-8.15;80.11
82506;SHT30;72144;51.444;10.560;2024-01-10T02:16:13;-8.16;79.96
82506;SHT30;72144;51.444;10.560;2024-01-10T02:18:39;-8.18;79.99
82506;SHT30;72144;51.444;10.560;2024-01-10T02:21:04;-8.18;80.10
82506;SHT30;72144;51.444;10.560;2024-01-10T02:23:29;-8.16;80.01
82506;SHT30;72144;51.444;10.560;2024-01-10T02:25:55;-8.18;80.01
82506;SHT30;72144;51.444;10.560;2024-01-10T02:28:20;-8.18;80.01
82506;SHT30;72144;51.444;10.560;2024-01-10T02:30:48;-8.19;80.10
82506;SHT30;72144;51.444;10.560;2024-01-10T02:33:14;-8.19;80.12
82506;SHT30;72144;51.444;10.560;2024-01-10T02:35:40;-8.22;79.99
82506;SHT30;72144;51.444;10.560;2024-01-10T02:38:05;-8.19;80.02
82506;SHT30;72144;51.444;10.560;2024-01-10T02:40:31;-8.22;79.96
82506;SHT30;72144;51.444;10.560;2024-01-10T02:42:56;-8.21;80.10
82506;SHT30;72144;51.444;10.560;2024-01-10T02:45:21;-8.22;80.14
82506;SHT30;72144;51.444;10.560;2024-01-10T02:47:47;-8.22;80.17
82506;SHT30;72144;51.444;10.560;2024-01-10T02:50:12;-8.23;80.18
82506;SHT30;72144;51.444;10.560;2024-01-10T02:52:38;-8.22;80.25
82506;SHT30;72144;51.444;10.560;2024-01-10T02:55:04;-8.22;80.18
82506;SHT30;72144;51.444;10.560;2024-01-10T02:57:29;-8.23;80.12
82506;SHT30;72144;51.444;10.560;2024-01-10T02:59:54;-8.23;80.07
82506;SHT30;72144;51.444;10.560;2024-01-10T03:02:20;-8.23;80.07
82506;SHT30;72144;51.444;10.560;2024-01-10T03:04:45;-8.25;80.16
82506;SHT30;72144;51.444;10.560;2024-01-10T03:07:10;-8.25;80.34
82506;SHT30;72144;51.444;10.560;2024-01-10T03:09:36;-8.26;80.32
82506;SHT30;72144;51.444;10.560;2024-01-10T03:12:01;-8.25;80.22
82506;SHT30;72144;51.444;10.560;2024-01-10T03:14:27;-8.28;80.22
82506;SHT30;72144;51.444;10.560;2024-01-10T03:16:52;-8.28;80.05
82506;SHT30;72144;51.444;10.560;2024-01-10T03:19:18;-8.29;80.05
82506;SHT30;72144;51.444;10.560;2024-01-10T03:21:44;-8.32;80.11
82506;SHT30;72144;51.444;10.560;2024-01-10T03:24:09;-8.30;80.15
82506;SHT30;72144;51.444;10.560;2024-01-10T03:26:34;-8.29;79.97
82506;SHT30;72144;51.444;10.560;2024-01-10T03:29:00;-8.34;79.98
82506;SHT30;72144;51.444;10.560;2024-01-10T03:31:27;-8.32;80.18
82506;SHT30;72144;51.444;10.560;2024-01-10T03:33:53;-8.36;80.15
82506;SHT30;72144;51.444;10.560;2024-01-10T03:36:18;-8.33;80.34
82506;SHT30;72144;51.444;10.560;2024-01-10T03:38:44;-8.33;80.32
82506;SHT30;72144;51.444;10.560;2024-01-10T03:41:20;-8.34;80.07
82506;SHT30;72144;51.444;10.560;2024-01-10T03:43:46;-8.34;80.11
82506;SHT30;72144;51.444;10.560;2024-01-10T03:46:12;-8.37;80.16
82506;SHT30;72144;51.444;10.560;2024-01-10T03:48:37;-8.37;80.00
82506;SHT30;72144;51.444;10.560;2024-01-10T03:51:05;-8.37;80.25
82506;SHT30;72144;51.444;10.560;2024-01-10T03:53:31;-8.39;80.17
82506;SHT30;72144;51.444;10.560;2024-01-10T03:55:56;-8.39;80.07
82506;SHT30;72144;51.444;10.560;2024-01-10T03:58:24;-8.40;80.27
82506;SHT30;72144;51.444;10.560;2024-01-10T04:00:49;-8.41;80.12
82506;SHT30;72144;51.444;10.560;2024-01-10T04:03:14;-8.40;80.28
82506;SHT30;72144;51.444;10.560;2024-01-10T04:05:41;-8.44;80.07
82506;SHT30;72144;51.444;10.560;2024-01-10T04:08:06;-8.44;80.04
82506;SHT30;72144;51.444;10.560;2024-01-10T04:10:32;-8.47;80.22
82506;SHT30;72144;51.444;10.560;2024-01-10T04:12:57;-8.49;80.12
82506;SHT30;72144;51.444;10.560;2024-01-10T04:15:23;-8.51;80.14
82506;SHT30;72144;51.444;10.560;2024-01-10T04:17:48;-8.51;79.91
82506;SHT30;72144;51.444;10.560;2024-01-10T04:20:13;-8.51;79.75
82506;SHT30;72144;51.444;10.560;2024-01-10T04:22:39;-8.54;79.81
82506;SHT30;72144;51.444;10.560;2024-01-10T04:25:07;-8.54;79.69
82506;SHT30;72144;51.444;10.560;2024-01-10T04:27:32;-8.56;79.66
82506;SHT30;72144;51.444;10.560;2024-01-10T04:29:58;-8.57;79.67
82506;SHT30;72144;51.444;10.560;2024-01-10T04:32:23;-8.60;79.60
82506;SHT30;72144;51.444;10.560;2024-01-10T04:34:48;-8.61;79.51
82506;SHT30;72144;51.444;10.560;2024-01-10T04:37:14;-8.60;79.51
82506;SHT30;72144;51.444;10.560;2024-01-10T04:39:39;-8.62;79.57
82506;SHT30;72144;51.444;10.560;2024-01-10T04:42:05;-8.65;79.59
82506;SHT30;72144;51.444;10.560;2024-01-10T04:44:31;-8.65;79.52
82506;SHT30;72144;51.444;10.560;2024-01-10T04:46:56;-8.65;79.50
82506;SHT30;72144;51.444;10.560;2024-01-10T04:49:22;-8.65;79.58
82506;SHT30;72144;51.444;10.560;2024-01-10T04:51:48;-8.68;79.50
82506;SHT30;72144;51.444;10.560;2024-01-10T04:54:13;-8.68;79.53
82506;SHT30;72144;51.444;10.560;2024-01-10T04:56:39;-8.69;79.49
82506;SHT30;72144;51.444;10.560;2024-01-10T04:59:05;-8.69;79.53
82506;SHT30;72144;51.444;10.560;2024-01-10T05:01:31;-8.71;79.51
82506;SHT30;72144;51.444;10.560;2024-01-10T05:03:56;-8.72;79.50
82506;SHT30;72144;51.444;10.560;2024-01-10T05:06:22;-8.72;79.60
82506;SHT30;72144;51.444;10.560;2024-01-10T05:08:47;-8.75;79.63
82506;SHT30;72144;51.444;10.560;2024-01-10T05:11:15;-8.74;79.57
82506;SHT30;72144;51.444;10.560;2024-01-10T05:13:40;-8.74;79.66
82506;SHT30;72144;51.444;10.560;2024-01-10T05:16:06;-8.75;79.70
82506;SHT30;72144;51.444;10.560;2024-01-10T05:18:31;-8.75;79.89
82506;SHT30;72144;51.444;10.560;2024-01-10T05:20:57;-8.77;79.79
82506;SHT30;72144;51.444;10.560;2024-01-10T05:23:23;-8.74;79.85
82506;SHT30;72144;51.444;10.560;2024-01-10T05:25:48;-8.75;79.95
82506;SHT30;72144;51.444;10.560;2024-01-10T05:28:14;-8.74;80.07
82506;SHT30;72144;51.444;10.560;2024-01-10T05:30:40;-8.74;79.99
82506;SHT30;72144;51.444;10.560;2024-01-10T05:33:05;-8.72;79.85
82506;SHT30;72144;51.444;10.560;2024-01-10T05:35:31;-8.75;79.72
82506;SHT30;72144;51.444;10.560;2024-01-10T05:37:56;-8.77;79.74
82506;SHT30;72144;51.444;10.560;2024-01-10T05:40:21;-8.75;79.76
82506;SHT30;72144;51.444;10.560;2024-01-10T05:42:47;-8.74;79.76
82506;SHT30;72144;51.444;10.560;2024-01-10T05:45:12;-8.75;79.68
82506;SHT30;72144;51.444;10.560;2024-01-10T05:47:37;-8.75;79.64
82506;SHT30;72144;51.444;10.560;2024-01-10T05:50:03;-8.77;79.68
82506;SHT30;72144;51.444;10.560;2024-01-10T05:52:32;-8.77;79.63
82506;SHT30;72144;51.444;10.560;2024-01-10T05:54:59;-8.78;79.73
82506;SHT30;72144;51.444;10.560;2024-01-10T05:57:24;-8.75;79.82
82506;SHT30;72144;51.444;10.560;2024-01-10T05:59:49;-8.77;79.72
82506;SHT30;72144;51.444;10.560;2024-01-10T06:02:17;-8.78;79.72
82506;SHT30;72144;51.444;10.560;2024-01-10T06:04:42;-8.77;79.69
82506;SHT30;72144;51.444;10.560;2024-01-10T06:07:07;-8.80;79.69
82506;SHT30;72144;51.444;10.560;2024-01-10T06:09:33;-8.78;79.75
82506;SHT30;72144;51.444;10.560;2024-01-10T06:11:58;-8.78;79.79
82506;SHT30;72144;51.444;10.560;2024-01-10T06:14:24;-8.81;79.77
82506;SHT30;72144;51.444;10.560;2024-01-10T06:16:49;-8.78;79.74
82506;SHT30;72144;51.444;10.560;2024-01-10T06:19:14;-8.81;79.68
82506;SHT30;72144;51.444;10.560;2024-01-10T06:21:40;-8.78;79.61
82506;SHT30;72144;51.444;10.560;2024-01-10T06:24:05;-8.81;79.62
82506;SHT30;72144;51.444;10.560;2024-01-10T06:26:30;-8.81;79.68
82506;SHT30;72144;51.444;10.560;2024-01-10T06:28:56;-8.81;79.79
82506;SHT30;72144;51.444;10.560;2024-01-10T06:31:21;-8.84;79.80
82506;SHT30;72144;51.444;10.560;2024-01-10T06:33:47;-8.83;79.80
82506;SHT30;72144;51.444;10.560;2024-01-10T06:36:12;-8.84;79.91
82506;SHT30;72144;51.444;10.560;2024-01-10T06:38:38;-8.83;79.86
82506;SHT30;72144;51.444;10.560;2024-01-10T06:41:08;-8.85;79.82
82506;SHT30;72144;51.444;10.560;2024-01-10T06:43:34;-8.81;79.76
82506;SHT30;72144;51.444;10.560;2024-01-10T06:45:59;-8.85;79.82
82506;SHT30;72144;51.444;10.560;2024-01-10T06:48:25;-8.84;79.85
82506;SHT30;72144;51.444;10.560;2024-01-10T06:50:50;-8.85;79.85
82506;SHT30;72144;51.444;10.560;2024-01-10T06:53:15;-8.85;79.89
82506;SHT30;72144;51.444;10.560;2024-01-10T06:55:41;-8.84;79.86
82506;SHT30;72144;51.444;10.560;2024-01-10T06:58:06;-8.84;79.86
82506;SHT30;72144;51.444;10.560;2024-01-10T07:00:31;-8.85;79.82
82506;SHT30;72144;51.444;10.560;2024-01-10T07:03:01;-8.85;79.76
82506;SHT30;72144;51.444;10.560;2024-01-10T07:05:27;-8.87;79.79
82506;SHT30;72144;51.444;10.560;2024-01-10T07:07:53;-8.87;79.91
82506;SHT30;72144;51.444;10.560;2024-01-10T07:10:19;-8.87;79.92
82506;SHT30;72144;51.444;10.560;2024-01-10T07:12:44;-8.87;79.87
82506;SHT30;72144;51.444;10.560;2024-01-10T07:15:09;-8.88;79.94
82506;SHT30;72144;51.444;10.560;2024-01-10T07:17:36;-8.88;80.04
82506;SHT30;72144;51.444;10.560;2024-01-10T07:20:01;-8.88;80.09
82506;SHT30;72144;51.444;10.560;2024-01-10T07:22:28;-8.88;80.03
82506;SHT30;72144;51.444;10.560;2024-01-10T07:24:53;-8.87;80.03
82506;SHT30;72144;51.444;10.560;2024-01-10T07:27:18;-8.87;79.97
82506;SHT30;72144;51.444;10.560;2024-01-10T07:29:44;-8.88;79.98
82506;SHT30;72144;51.444;10.560;2024-01-10T07:32:09;-8.87;80.02
82506;SHT30;72144;51.444;10.560;2024-01-10T07:34:38;-8.87;80.02
82506;SHT30;72144;51.444;10.560;2024-01-10T07:37:04;-8.88;79.96
82506;SHT30;72144;51.444;10.560;2024-01-10T07:39:29;-8.91;79.86
82506;SHT30;72144;51.444;10.560;2024-01-10T07:41:55;-8.88;79.67
82506;SHT30;72144;51.444;10.560;2024-01-10T07:44:20;-8.89;80.07
82506;SHT30;72144;51.444;10.560;2024-01-10T07:46:46;-8.88;80.13
82506;SHT30;72144;51.444;10.560;2024-01-10T07:49:11;-8.89;79.91
82506;SHT30;72144;51.444;10.560;2024-01-10T07:51:36;-8.88;79.87
82506;SHT30;72144;51.444;10.560;2024-01-10T07:54:02;-8.89;79.78
82506;SHT30;72144;51.444;10.560;2024-01-10T07:56:27;-8.87;80.40
82506;SHT30;72144;51.444;10.560;2024-01-10T07:58:53;-8.85;80.60
82506;SHT30;72144;51.444;10.560;2024-01-10T08:01:18;-8.84;80.04
82506;SHT30;72144;51.444;10.560;2024-01-10T08:03:43;-8.84;79.94
82506;SHT30;72144;51.444;10.560;2024-01-10T08:06:09;-8.85;79.91
82506;SHT30;72144;51.444;10.560;2024-01-10T08:08:37;-8.84;80.02
82506;SHT30;72144;51.444;10.560;2024-01-10T08:11:02;-8.85;80.20
82506;SHT30;72144;51.444;10.560;2024-01-10T08:13:28;-8.81;80.19
82506;SHT30;72144;51.444;10.560;2024-01-10T08:15:53;-8.80;80.26
82506;SHT30;72144;51.444;10.560;2024-01-10T08:18:19;-8.80;80.44
82506;SHT30;72144;51.444;10.560;2024-01-10T08:20:44;-8.80;80.32
82506;SHT30;72144;51.444;10.560;2024-01-10T08:23:10;-8.78;80.57
82506;SHT30;72144;51.444;10.560;2024-01-10T08:25:35;-8.77;80.73
82506;SHT30;72144;51.444;10.560;2024-01-10T08:28:01;-8.78;80.88
82506;SHT30;72144;51.444;10.560;2024-01-10T08:30:26;-8.74;81.01
82506;SHT30;72144;51.444;10.560;2024-01-10T08:32:51;-8.74;80.98
82506;SHT30;72144;51.444;10.560;2024-01-10T08:35:17;-8.74;81.22
82506;SHT30;72144;51.444;10.560;2024-01-10T08:37:44;-8.72;81.32
82506;SHT30;72144;51.444;10.560;2024-01-10T08:40:10;-8.71;81.44
82506;SHT30;72144;51.444;10.560;2024-01-10T08:42:38;-8.72;81.60
82506;SHT30;72144;51.444;10.560;2024-01-10T08:45:04;-8.68;81.57
82506;SHT30;72144;51.444;10.560;2024-01-10T08:47:29;-8.71;81.62
82506;SHT30;72144;51.444;10.560;2024-01-10T08:49:58;-8.68;81.64
82506;SHT30;72144;51.444;10.560;2024-01-10T08:52:23;-8.68;81.77
82506;SHT30;72144;51.444;10.560;2024-01-10T08:54:49;-8.68;81.88
82506;SHT30;72144;51.444;10.560;2024-01-10T08:57:14;-8.67;81.84
82506;SHT30;72144;51.444;10.560;2024-01-10T08:59:43;-8.65;81.71
82506;SHT30;72144;51.444;10.560;2024-01-10T09:02:08;-8.65;81.66
82506;SHT30;72144;51.444;10.560;2024-01-10T09:04:33;-8.67;81.80
82506;SHT30;72144;51.444;10.560;2024-01-10T09:06:59;-8.62;81.86
82506;SHT30;72144;51.444;10.560;2024-01-10T09:09:24;-8.64;81.99
82506;SHT30;72144;51.444;10.560;2024-01-10T09:11:49;-8.60;82.12
82506;SHT30;72144;51.444;10.560;2024-01-10T09:14:15;-8.60;82.09
82506;SHT30;72144;51.444;10.560;2024-01-10T09:16:40;-8.58;82.03
82506;SHT30;72144;51.444;10.560;2024-01-10T09:19:05;-8.54;82.10
82506;SHT30;72144;51.444;10.560;2024-01-10T09:21:31;-8.56;82.02
82506;SHT30;72144;51.444;10.560;2024-01-10T09:23:56;-8.53;81.99
82506;SHT30;72144;51.444;10.560;2024-01-10T09:26:22;-8.49;81.93
82506;SHT30;72144;51.444;10.560;2024-01-10T09:28:48;-8.47;82.07
82506;SHT30;72144;51.444;10.560;2024-01-10T09:31:13;-8.41;82.05
82506;SHT30;72144;51.444;10.560;2024-01-10T09:33:40;-8.40;82.13
82506;SHT30;72144;51.444;10.560;2024-01-10T09:36:05;-8.37;82.19
82506;SHT30;72144;51.444;10.560;2024-01-10T09:38:37;-8.34;82.25
82506;SHT30;72144;51.444;10.560;2024-01-10T09:41:04;-8.32;82.16
82506;SHT30;72144;51.444;10.560;2024-01-10T09:43:31;-8.30;82.19
82506;SHT30;72144;51.444;10.560;2024-01-10T09:45:58;-8.25;82.20
82506;SHT30;72144;51.444;10.560;2024-01-10T09:48:25;-8.21;82.30
82506;SHT30;72144;51.444;10.560;2024-01-10T09:50:51;-8.18;82.24
82506;SHT30;72144;51.444;10.560;2024-01-10T09:53:22;-8.12;82.24
82506;SHT30;72144;51.444;10.560;2024-01-10T09:55:52;-8.09;82.31
82506;SHT30;72144;51.444;10.560;2024-01-10T09:58:23;-8.06;82.33
82506;SHT30;72144;51.444;10.560;2024-01-10T10:00:48;-8.02;82.36
82506;SHT30;72144;51.444;10.560;2024-01-10T10:03:14;-7.97;82.36
82506;SHT30;72144;51.444;10.560;2024-01-10T10:05:42;-7.93;82.40
82506;SHT30;72144;51.444;10.560;2024-01-10T10:08:08;-7.88;82.45
82506;SHT30;72144;51.444;10.560;2024-01-10T10:10:35;-7.83;82.51
82506;SHT30;72144;51.444;10.560;2024-01-10T10:13:00;-7.77;82.56
82506;SHT30;72144;51.444;10.560;2024-01-10T10:15:26;-7.73;82.64
82506;SHT30;72144;51.444;10.560;2024-01-10T10:17:52;-7.70;82.72
82506;SHT30;72144;51.444;10.560;2024-01-10T10:23:05;-7.60;82.76
82506;SHT30;72144;51.444;10.560;2024-01-10T10:25:32;-7.53;82.81
82506;SHT30;72144;51.444;10.560;2024-01-10T10:27:58;-7.49;82.89
82506;SHT30;72144;51.444;10.560;2024-01-10T10:30:25;-7.43;82.92
82506;SHT30;72144;51.444;10.560;2024-01-10T10:32:50;-7.38;82.95
82506;SHT30;72144;51.444;10.560;2024-01-10T10:35:18;-7.32;83.04
82506;SHT30;72144;51.444;10.560;2024-01-10T10:37:44;-7.28;83.11
82506;SHT30;72144;51.444;10.560;2024-01-10T10:40:09;-7.22;83.22
82506;SHT30;72144;51.444;10.560;2024-01-10T10:42:40;-7.15;83.29
82506;SHT30;72144;51.444;10.560;2024-01-10T10:45:12;-7.09;83.40
82506;SHT30;72144;51.444;10.560;2024-01-10T10:47:41;-7.01;83.48
82506;SHT30;72144;51.444;10.560;2024-01-10T10:50:12;-6.97;83.58
82506;SHT30;72144;51.444;10.560;2024-01-10T10:52:42;-6.91;83.63
82506;SHT30;72144;51.444;10.560;2024-01-10T10:55:10;-6.81;83.79
82506;SHT30;72144;51.444;10.560;2024-01-10T10:57:37;-6.76;83.81
82506;SHT30;72144;51.444;10.560;2024-01-10T11:00:04;-6.70;83.74
82506;SHT30;72144;51.444;10.560;2024-01-10T11:02:32;-6.62;83.70
82506;SHT30;72144;51.444;10.560;2024-01-10T11:04:58;-6.56;83.66
82506;SHT30;72144;51.444;10.560;2024-01-10T11:07:24;-6.49;83.65
82506;SHT30;72144;51.444;10.560;2024-01-10T11:09:50;-6.43;83.60
82506;SHT30;72144;51.444;10.560;2024-01-10T11:25:40;-6.01;83.23
82506;SHT30;72144;51.444;10.560;2024-01-10T11:28:06;-5.97;83.19
82506;SHT30;72144;51.444;10.560;2024-01-10T11:30:39;-5.89;83.19
82506;SHT30;72144;51.444;10.560;2024-01-10T11:33:23;-5.82;83.23
82506;SHT30;72144;51.444;10.560;2024-01-10T11:38:54;-5.65;83.10
82506;SHT30;72144;51.444;10.560;2024-01-10T11:41:33;-5.56;83.14
82506;SHT30;72144;51.444;10.560;2024-01-10T11:46:56;-5.44;83.03
82506;SHT30;72144;51.444;10.560;2024-01-10T11:49:22;-5.35;83.01
82506;SHT30;72144;51.444;10.560;2024-01-10T11:51:49;-5.30;83.00
82506;SHT30;72144;51.444;10.560;2024-01-10T11:57:03;-5.16;82.90
82506;SHT30;72144;51.444;10.560;2024-01-10T11:59:32;-5.11;82.89
82506;SHT30;72144;51.444;10.560;2024-01-10T12:01:58;-5.04;83.04
82506;SHT30;72144;51.444;10.560;2024-01-10T12:04:24;-4.96;83.04
82506;SHT30;72144;51.444;10.560;2024-01-10T12:06:52;-4.89;83.00
82506;SHT30;72144;51.444;10.560;2024-01-10T12:09:17;-4.82;83.03
82506;SHT30;72144;51.444;10.560;2024-01-10T12:11:43;-4.75;82.99
82506;SHT30;72144;51.444;10.560;2024-01-10T12:14:08;-4.65;83.00
82506;SHT30;72144;51.444;10.560;2024-01-10T12:16:35;-4.62;82.99
82506;SHT30;72144;51.444;10.560;2024-01-10T12:19:00;-4.55;82.99
82506;SHT30;72144;51.444;10.560;2024-01-10T12:21:26;-4.47;82.99
82506;SHT30;72144;51.444;10.560;2024-01-10T12:23:51;-4.41;82.91
82506;SHT30;72144;51.444;10.560;2024-01-10T12:26:18;-4.36;82.85
82506;SHT30;72144;51.444;10.560;2024-01-10T12:28:54;-4.28;82.87
82506;SHT30;72144;51.444;10.560;2024-01-10T12:31:20;-4.23;82.87
82506;SHT30;72144;51.444;10.560;2024-01-10T12:33:48;-4.14;82.85
82506;SHT30;72144;51.444;10.560;2024-01-10T12:36:13;-4.09;82.82
82506;SHT30;72144;51.444;10.560;2024-01-10T12:38:39;-4.02;82.75
82506;SHT30;72144;51.444;10.560;2024-01-10T12:41:05;-3.99;82.77
82506;SHT30;72144;51.444;10.560;2024-01-10T12:43:31;-3.92;82.73
82506;SHT30;72144;51.444;10.560;2024-01-10T12:46:10;-3.85;82.70
82506;SHT30;72144;51.444;10.560;2024-01-10T12:48:40;-3.79;82.70
82506;SHT30;72144;51.444;10.560;2024-01-10T12:51:12;-3.72;82.78
82506;SHT30;72144;51.444;10.560;2024-01-10T12:53:40;-3.68;82.72
82506;SHT30;72144;51.444;10.560;2024-01-10T12:56:07;-3.61;82.72
82506;SHT30;72144;51.444;10.560;2024-01-10T12:58:34;-3.57;82.76
82506;SHT30;72144;51.444;10.560;2024-01-10T13:01:01;-3.48;82.88
82506;SHT30;72144;51.444;10.560;2024-01-10T13:03:26;-3.44;82.79
82506;SHT30;72144;51.444;10.560;2024-01-10T13:05:52;-3.39;82.78
82506;SHT30;72144;51.444;10.560;2024-01-10T13:08:18;-3.33;82.80
82506;SHT30;72144;51.444;10.560;2024-01-10T13:10:44;-3.29;82.75
82506;SHT30;72144;51.444;10.560;2024-01-10T13:13:11;-3.20;82.78
82506;SHT30;72144;51.444;10.560;2024-01-10T13:15:36;-3.13;82.78
82506;SHT30;72144;51.444;10.560;2024-01-10T13:18:02;-3.09;82.71
82506;SHT30;72144;51.444;10.560;2024-01-10T13:20:27;-3.06;82.77
82506;SHT30;72144;51.444;10.560;2024-01-10T13:22:53;-3.01;82.77
82506;SHT30;72144;51.444;10.560;2024-01-10T13:25:18;-2.96;82.80
82506;SHT30;72144;51.444;10.560;2024-01-10T13:27:51;-2.89;82.86
82506;SHT30;72144;51.444;10.560;2024-01-10T13:30:16;-2.85;82.79
82506;SHT30;72144;51.444;10.560;2024-01-10T13:32:43;-2.81;82.71
82506;SHT30;72144;51.444;10.560;2024-01-10T13:35:08;-2.77;82.71
82506;SHT30;72144;51.444;10.560;2024-01-10T13:37:33;-2.73;82.64
82506;SHT30;72144;51.444;10.560;2024-01-10T13:39:59;-2.68;82.64
82506;SHT30;72144;51.444;10.560;2024-01-10T13:42:25;-2.61;82.64
82506;SHT30;72144;51.444;10.560;2024-01-10T13:44:50;-2.57;82.62
82506;SHT30;72144;51.444;10.560;2024-01-10T13:47:19;-2.53;82.69
82506;SHT30;72144;51.444;10.560;2024-01-10T13:49:47;-2.50;82.80
82506;SHT30;72144;51.444;10.560;2024-01-10T13:52:12;-2.46;82.74
82506;SHT30;72144;51.444;10.560;2024-01-10T13:54:38;-2.40;82.74
82506;SHT30;72144;51.444;10.560;2024-01-10T13:57:03;-2.35;82.72
82506;SHT30;72144;51.444;10.560;2024-01-10T13:59:29;-2.33;82.65
82506;SHT30;72144;51.444;10.560;2024-01-10T14:01:55;-2.28;82.62
82506;SHT30;72144;51.444;10.560;2024-01-10T14:04:20;-2.25;82.67
82506;SHT30;72144;51.444;10.560;2024-01-10T14:06:47;-2.23;82.78
82506;SHT30;72144;51.444;10.560;2024-01-10T14:09:13;-2.19;82.67
82506;SHT30;72144;51.444;10.560;2024-01-10T14:11:38;-2.19;82.65
82506;SHT30;72144;51.444;10.560;2024-01-10T14:14:03;-2.15;82.61
82506;SHT30;72144;51.444;10.560;2024-01-10T14:16:29;-2.13;82.59
82506;SHT30;72144;51.444;10.560;2024-01-10T14:18:54;-2.12;82.60
82506;SHT30;72144;51.444;10.560;2024-01-10T14:21:21;-2.09;82.61
82506;SHT30;72144;51.444;10.560;2024-01-10T14:23:47;-2.11;82.57
82506;SHT30;72144;51.444;10.560;2024-01-10T14:26:14;-2.11;82.53
82506;SHT30;72144;51.444;10.560;2024-01-10T14:28:39;-2.12;82.66
82506;SHT30;72144;51.444;10.560;2024-01-10T14:31:04;-2.11;82.55
82506;SHT30;72144;51.444;10.560;2024-01-10T14:33:30;-2.11;82.50
82506;SHT30;72144;51.444;10.560;2024-01-10T14:35:55;-2.09;82.60
82506;SHT30;72144;51.444;10.560;2024-01-10T14:38:21;-2.09;82.33
82506;SHT30;72144;51.444;10.560;2024-01-10T14:40:47;-2.09;82.29
82506;SHT30;72144;51.444;10.560;2024-01-10T14:43:13;-2.11;82.20
82506;SHT30;72144;51.444;10.560;2024-01-10T14:45:38;-2.09;82.20
82506;SHT30;72144;51.444;10.560;2024-01-10T14:48:04;-2.11;82.23
82506;SHT30;72144;51.444;10.560;2024-01-10T14:50:29;-2.12;82.13
82506;SHT30;72144;51.444;10.560;2024-01-10T14:52:55;-2.11;82.09
82506;SHT30;72144;51.444;10.560;2024-01-10T14:55:23;-2.09;82.01
82506;SHT30;72144;51.444;10.560;2024-01-10T14:57:49;-2.12;81.85
82506;SHT30;72144;51.444;10.560;2024-01-10T15:00:15;-2.09;81.72
82506;SHT30;72144;51.444;10.560;2024-01-10T15:02:40;-2.08;81.71
82506;SHT30;72144;51.444;10.560;2024-01-10T15:05:06;-2.09;81.77
82506;SHT30;72144;51.444;10.560;2024-01-10T15:07:31;-2.08;81.66
82506;SHT30;72144;51.444;10.560;2024-01-10T15:09:57;-2.11;81.50
82506;SHT30;72144;51.444;10.560;2024-01-10T15:12:24;-2.09;81.47
82506;SHT30;72144;51.444;10.560;2024-01-10T15:14:49;-2.11;81.34
82506;SHT30;72144;51.444;10.560;2024-01-10T15:17:15;-2.12;81.17
82506;SHT30;72144;51.444;10.560;2024-01-10T15:19:40;-2.12;81.03
82506;SHT30;72144;51.444;10.560;2024-01-10T15:22:06;-2.13;80.97
82506;SHT30;72144;51.444;10.560;2024-01-10T15:24:31;-2.13;80.85
82506;SHT30;72144;51.444;10.560;2024-01-10T15:26:57;-2.16;81.02
82506;SHT30;72144;51.444;10.560;2024-01-10T15:29:27;-2.16;80.90
82506;SHT30;72144;51.444;10.560;2024-01-10T15:31:53;-2.16;80.70